Time;durP1;ratioP1;P1;durP2;ratioP2;P2;SDS_P1;SDS_P2;PMS_P1;PMS_P2;Temp;Humidity;BMP_temperature;BMP_pressure;BME280_temperature;BME280_humidity;BME280_pressure;Samples;Min_cycle;Max_cycle;Signal;HPM_P1;HPM_P2
2022/01/01 00:01:41;;;;;;;543.90;322.45;;;4.40;99.90;;;;;;5063154;28;20064;-83
2022/01/01 00:04:09;;;;;;;541.80;328.75;;;4.40;99.90;;;;;;5081653;28;20048;-81
2022/01/01 00:06:38;;;;;;;483.02;292.25;;;4.30;1.00;;;;;;5081070;28;20104;-82
2022/01/01 00:09:06;;;;;;;379.20;232.10;;;4.20;2.00;;;;;;5081654;28;20083;-80
2022/01/01 00:11:34;;;;;;;391.60;245.90;;;4.20;99.90;;;;;;5080474;28;20075;-82
2022/01/01 00:14:03;;;;;;;397.67;232.52;;;4.20;99.90;;;;;;5075750;28;20041;-81
2022/01/01 00:16:31;;;;;;;431.02;256.65;;;4.30;99.90;;;;;;5074600;28;20051;-81
2022/01/01 00:18:58;;;;;;;491.33;274.30;;;4.30;99.90;;;;;;5068506;28;20090;-81
2022/01/01 00:21:26;;;;;;;589.88;313.83;;;4.30;99.90;;;;;;5057918;28;20407;-82
2022/01/01 00:23:54;;;;;;;574.28;300.63;;;4.30;99.90;;;;;;5070856;28;20050;-86
2022/01/01 00:26:22;;;;;;;673.33;327.27;;;4.20;1.00;;;;;;5072856;28;20041;-84
2022/01/01 00:28:50;;;;;;;493.25;272.23;;;4.20;1.00;;;;;;5065138;28;20049;-85
2022/01/01 00:31:19;;;;;;;464.27;253.70;;;4.20;1.00;;;;;;5067379;28;20100;-84
2022/01/01 00:33:46;;;;;;;419.55;234.98;;;4.20;99.90;;;;;;5076147;28;20048;-83
2022/01/01 00:36:14;;;;;;;462.50;247.77;;;4.20;1.00;;;;;;5080874;28;20075;-84
2022/01/01 00:38:41;;;;;;;410.77;226.70;;;4.20;1.00;;;;;;5075090;28;20036;-84
2022/01/01 00:41:09;;;;;;;424.27;202.73;;;4.20;1.00;;;;;;5080822;28;20068;-85
2022/01/01 00:43:36;;;;;;;332.50;175.48;;;4.30;1.00;;;;;;5082238;28;20096;-84
2022/01/01 00:46:04;;;;;;;384.08;182.65;;;4.30;1.00;;;;;;5083979;28;20048;-84
2022/01/01 00:48:33;;;;;;;351.80;185.95;;;4.20;99.90;;;;;;5081977;28;20105;-83
2022/01/01 00:51:00;;;;;;;404.23;202.05;;;4.20;1.00;;;;;;5076722;28;20549;-83
2022/01/01 00:53:28;;;;;;;375.02;193.20;;;4.20;1.00;;;;;;5075112;28;20135;-83
2022/01/01 00:55:55;;;;;;;345.55;187.75;;;4.20;1.00;;;;;;5075687;28;20083;-83
2022/01/01 00:58:23;;;;;;;295.88;163.40;;;4.20;1.00;;;;;;5076393;28;20518;-83
2022/01/01 01:00:50;;;;;;;305.60;167.00;;;4.30;1.00;;;;;;5076266;28;20075;-83
2022/01/01 01:03:19;;;;;;;269.63;151.23;;;4.30;1.00;;;;;;5081336;28;20132;-83
2022/01/01 01:05:48;;;;;;;277.27;151.50;;;4.30;99.90;;;;;;5089454;28;20048;-83
2022/01/01 01:08:17;;;;;;;281.20;154.90;;;4.30;1.00;;;;;;5075186;28;20043;-83
2022/01/01 01:10:47;;;;;;;306.20;167.50;;;4.30;1.00;;;;;;5064395;28;20074;-83
2022/01/01 01:13:15;;;;;;;290.23;159.57;;;4.20;99.90;;;;;;5080043;28;20048;-81
2022/01/01 01:15:43;;;;;;;298.23;160.40;;;4.10;1.00;;;;;;5078628;28;20076;-83
2022/01/01 01:18:10;;;;;;;274.38;150.73;;;4.00;1.00;;;;;;5079116;28;20044;-83
2022/01/01 01:20:38;;;;;;;274.05;146.88;;;3.90;1.00;;;;;;5079296;28;20064;-83
2022/01/01 01:23:07;;;;;;;243.10;135.95;;;3.90;99.90;;;;;;5078725;28;20040;-84
2022/01/01 01:25:39;;;;;;;287.45;158.18;;;3.90;1.00;;;;;;5078910;28;20052;-84
2022/01/01 01:28:08;;;;;;;291.13;164.75;;;3.90;1.00;;;;;;5077258;28;20127;-83
2022/01/01 01:30:36;;;;;;;263.38;146.05;;;4.00;1.00;;;;;;5078153;28;20057;-83
2022/01/01 01:33:05;;;;;;;291.67;159.00;;;4.00;1.00;;;;;;5076214;28;20036;-83
2022/01/01 01:35:33;;;;;;;283.75;155.35;;;4.00;99.90;;;;;;5076038;28;20044;-82
2022/01/01 01:38:00;;;;;;;257.15;145.05;;;4.00;1.00;;;;;;5058448;28;20075;-83
2022/01/01 01:40:29;;;;;;;253.13;138.50;;;4.00;1.00;;;;;;5076394;28;20468;-82
2022/01/01 01:42:57;;;;;;;219.27;121.40;;;3.90;1.00;;;;;;5075765;28;20128;-83
2022/01/01 01:45:28;;;;;;;221.95;119.53;;;3.90;1.00;;;;;;5074870;28;20075;-83
2022/01/01 01:47:56;;;;;;;250.32;119.78;;;3.90;1.00;;;;;;5073920;28;20389;-83
2022/01/01 01:50:23;;;;;;;263.40;119.45;;;3.80;99.90;;;;;;5074996;28;20050;-83
2022/01/01 01:52:53;;;;;;;229.90;119.03;;;3.70;99.90;;;;;;5073727;28;20047;-82
2022/01/01 01:55:20;;;;;;;255.70;128.32;;;3.70;1.00;;;;;;5074807;28;20046;-83
2022/01/01 01:57:50;;;;;;;241.18;123.55;;;3.60;1.00;;;;;;5056705;28;20076;-83
2022/01/01 02:00:43;;;;;;;292.23;135.05;;;3.60;99.90;;;;;;5031215;23;1323084;-79
2022/01/01 02:03:11;;;;;;;349.77;176.43;;;3.60;99.90;;;;;;5074396;28;20037;-79
2022/01/01 02:05:40;;;;;;;275.85;151.75;;;3.60;99.90;;;;;;5058404;28;20048;-80
2022/01/01 02:08:08;;;;;;;256.58;121.85;;;3.60;99.90;;;;;;5066602;28;20041;-78
2022/01/01 02:10:36;;;;;;;192.63;101.03;;;3.60;1.00;;;;;;5088715;28;20052;-77
2022/01/01 02:13:12;;;;;;;206.55;112.57;;;3.50;1.00;;;;;;5042550;28;20103;-79
2022/01/01 02:15:47;;;;;;;232.85;127.20;;;3.60;43.60;;;;;;5018098;28;20507;-79
2022/01/01 02:18:15;;;;;;;240.88;131.20;;;3.60;59.20;;;;;;5021209;28;20416;-79
2022/01/01 02:20:49;;;;;;;285.27;152.18;;;3.60;68.50;;;;;;5039862;28;20045;-81
2022/01/01 02:23:17;;;;;;;290.25;153.93;;;3.60;99.90;;;;;;5038588;28;20044;-79
2022/01/01 02:25:46;;;;;;;253.57;132.50;;;3.70;1.00;;;;;;5039188;28;20554;-80
2022/01/01 02:28:13;;;;;;;257.10;135.68;;;3.70;99.90;;;;;;5049983;28;20101;-78
2022/01/01 02:30:41;;;;;;;275.45;148.75;;;3.60;99.90;;;;;;5058534;28;20488;-79
2022/01/01 02:33:08;;;;;;;368.20;207.48;;;3.60;99.90;;;;;;5058385;28;20052;-79
2022/01/01 02:35:36;;;;;;;263.50;143.80;;;3.60;1.00;;;;;;5057660;28;20037;-79
2022/01/01 02:38:07;;;;;;;230.50;126.90;;;3.50;99.90;;;;;;5057561;28;20132;-78
2022/01/01 02:40:35;;;;;;;241.50;126.05;;;3.60;99.90;;;;;;5056877;28;20067;-78
2022/01/01 02:43:03;;;;;;;257.42;139.90;;;3.60;99.90;;;;;;5065013;28;20544;-79
2022/01/01 02:45:30;;;;;;;253.50;135.90;;;3.60;1.00;;;;;;5060296;28;20053;-79
2022/01/01 02:47:58;;;;;;;246.93;133.65;;;3.60;1.00;;;;;;5058001;28;20124;-80
2022/01/01 02:50:26;;;;;;;244.98;132.27;;;3.60;99.90;;;;;;5068655;28;20071;-80
2022/01/01 02:52:53;;;;;;;262.42;141.43;;;3.50;99.90;;;;;;5060211;28;20048;-78
2022/01/01 02:55:22;;;;;;;250.50;132.85;;;3.50;99.90;;;;;;5062516;28;20044;-79
2022/01/01 02:57:49;;;;;;;250.63;130.07;;;3.40;67.00;;;;;;5039969;28;20500;-78
2022/01/01 03:00:18;;;;;;;243.50;131.27;;;3.40;37.30;;;;;;5039503;28;20224;-79
2022/01/01 03:02:45;;;;;;;241.80;130.02;;;3.40;99.90;;;;;;5056505;28;20072;-78
2022/01/01 03:05:13;;;;;;;255.50;130.38;;;3.40;99.90;;;;;;5039499;28;20045;-78
2022/01/01 03:07:41;;;;;;;344.50;134.93;;;3.40;99.90;;;;;;5039778;28;20072;-78
2022/01/01 03:10:09;;;;;;;304.63;128.00;;;3.40;1.00;;;;;;5040028;28;20140;-80
2022/01/01 03:12:39;;;;;;;228.85;113.97;;;3.30;99.90;;;;;;5040268;28;20491;-78
2022/01/01 03:15:07;;;;;;;190.13;92.55;;;3.20;1.00;;;;;;5058019;28;20377;-78
2022/01/01 03:17:34;;;;;;;219.85;93.80;;;3.20;99.90;;;;;;5057727;28;20048;-78
2022/01/01 03:20:02;;;;;;;335.55;124.03;;;3.30;99.90;;;;;;5039882;28;20140;-78
2022/01/01 03:22:29;;;;;;;229.48;99.07;;;3.30;23.70;;;;;;5042293;28;20503;-78
2022/01/01 03:24:57;;;;;;;206.73;94.93;;;3.30;1.00;;;;;;5056130;28;20041;-78
2022/01/01 03:27:24;;;;;;;253.05;110.25;;;3.30;1.00;;;;;;5058221;28;20045;-78
2022/01/01 03:29:54;;;;;;;187.07;89.45;;;3.20;1.00;;;;;;5056943;28;20155;-80
2022/01/01 03:32:21;;;;;;;184.55;84.80;;;3.30;1.00;;;;;;5057998;28;20048;-79
2022/01/01 03:34:49;;;;;;;265.80;105.60;;;3.20;1.00;;;;;;5039853;28;20044;-78
2022/01/01 03:37:16;;;;;;;271.95;147.63;;;3.20;1.00;;;;;;5039532;28;20530;-80
2022/01/01 03:39:44;;;;;;;192.93;107.72;;;3.10;1.00;;;;;;5057365;28;20049;-80
2022/01/01 03:42:11;;;;;;;176.82;95.32;;;3.20;1.00;;;;;;5057099;28;20511;-78
2022/01/01 03:44:39;;;;;;;182.60;94.45;;;3.20;99.90;;;;;;5057091;28;20124;-80
2022/01/01 03:47:09;;;;;;;190.38;105.03;;;3.20;99.90;;;;;;5057024;28;20064;-80
2022/01/01 03:49:37;;;;;;;179.73;96.75;;;3.20;1.00;;;;;;5057254;28;20049;-79
2022/01/01 03:52:05;;;;;;;189.02;103.47;;;3.20;1.00;;;;;;5059680;28;20068;-80
2022/01/01 03:54:33;;;;;;;209.38;114.28;;;3.20;1.00;;;;;;5063964;28;20052;-79
2022/01/01 03:57:00;;;;;;;205.20;110.88;;;3.20;99.90;;;;;;5059634;28;20068;-78
2022/01/01 03:59:28;;;;;;;214.85;112.32;;;3.20;1.00;;;;;;5057867;28;20053;-81
2022/01/01 04:01:55;;;;;;;191.25;101.65;;;3.10;99.90;;;;;;5075343;28;20064;-79
2022/01/01 04:04:25;;;;;;;191.57;102.85;;;3.10;99.90;;;;;;5079445;28;20122;-80
2022/01/01 04:06:53;;;;;;;188.75;104.75;;;3.10;99.90;;;;;;5082957;28;20074;-80
2022/01/01 04:09:21;;;;;;;197.95;103.97;;;3.10;99.90;;;;;;5082707;28;20094;-81
2022/01/01 04:11:48;;;;;;;211.82;110.82;;;3.10;99.90;;;;;;5082007;28;20044;-79
2022/01/01 04:14:16;;;;;;;210.65;117.07;;;3.10;99.90;;;;;;5085087;28;20072;-79
2022/01/01 04:16:46;;;;;;;255.43;127.68;;;3.20;1.00;;;;;;5070394;28;20102;-81
2022/01/01 04:19:14;;;;;;;215.05;112.20;;;3.20;1.00;;;;;;5082884;28;20147;-80
2022/01/01 04:21:42;;;;;;;199.52;105.00;;;3.20;99.90;;;;;;5060584;28;20491;-80
2022/01/01 04:24:10;;;;;;;163.73;90.68;;;3.10;99.90;;;;;;5078105;28;20044;-79
2022/01/01 04:26:38;;;;;;;187.77;102.65;;;3.10;1.00;;;;;;5075133;28;20040;-78
2022/01/01 04:29:06;;;;;;;178.38;97.82;;;3.10;1.00;;;;;;5075525;28;20051;-80
2022/01/01 04:31:34;;;;;;;192.25;103.68;;;3.10;99.90;;;;;;5078862;28;20068;-80
2022/01/01 04:34:01;;;;;;;200.15;106.97;;;3.00;99.90;;;;;;5088454;28;20039;-81
2022/01/01 04:36:29;;;;;;;172.68;97.68;;;2.90;99.90;;;;;;5086854;28;20064;-81
2022/01/01 04:38:58;;;;;;;166.23;87.32;;;2.90;99.90;;;;;;5077636;28;20048;-82
2022/01/01 04:41:25;;;;;;;155.77;84.30;;;2.80;1.00;;;;;;5057661;28;20135;-80
2022/01/01 04:43:53;;;;;;;151.90;82.78;;;2.80;1.00;;;;;;5075149;28;20045;-80
2022/01/01 04:46:20;;;;;;;158.68;85.00;;;2.80;1.00;;;;;;5082780;28;20041;-80
2022/01/01 04:48:48;;;;;;;147.45;71.68;;;2.90;1.00;;;;;;5084780;28;20048;-80
2022/01/01 04:51:15;;;;;;;143.73;71.38;;;2.80;1.00;;;;;;5059149;28;20099;-78
2022/01/01 04:53:44;;;;;;;161.73;84.95;;;2.70;1.00;;;;;;5075714;28;20032;-81
2022/01/01 04:56:18;;;;;;;149.00;75.38;;;2.80;1.00;;;;;;5076805;28;20418;-80
2022/01/01 04:58:46;;;;;;;145.02;71.35;;;2.70;1.00;;;;;;5075901;28;20450;-79
2022/01/01 05:01:14;;;;;;;183.80;82.90;;;2.80;99.90;;;;;;5076315;28;20411;-80
2022/01/01 05:03:41;;;;;;;159.00;77.20;;;2.80;1.00;;;;;;5058322;28;20041;-81
2022/01/01 05:06:09;;;;;;;145.05;74.53;;;2.90;1.00;;;;;;5076289;28;20048;-81
2022/01/01 05:08:36;;;;;;;142.45;72.85;;;2.90;99.90;;;;;;5068278;28;20070;-83
2022/01/01 05:11:04;;;;;;;164.00;78.90;;;2.80;99.90;;;;;;5073113;28;20378;-82
2022/01/01 05:13:33;;;;;;;167.68;74.82;;;2.80;1.00;;;;;;5078521;28;20059;-80
2022/01/01 05:16:00;;;;;;;139.90;74.53;;;2.80;1.00;;;;;;5061281;28;20044;-80
2022/01/01 05:18:28;;;;;;;131.85;73.68;;;2.80;1.00;;;;;;5061376;28;20414;-80
2022/01/01 05:20:56;;;;;;;124.95;71.78;;;2.70;1.00;;;;;;5079594;28;20040;-80
2022/01/01 05:23:23;;;;;;;122.00;70.40;;;2.70;1.00;;;;;;5061527;28;20510;-80
2022/01/01 05:25:51;;;;;;;121.68;67.88;;;2.80;99.90;;;;;;5078943;28;20037;-81
2022/01/01 05:28:18;;;;;;;116.00;59.42;;;2.80;99.90;;;;;;5075761;28;20052;-81
2022/01/01 05:30:47;;;;;;;129.15;59.97;;;2.80;1.00;;;;;;5058639;28;20508;-80
2022/01/01 05:33:15;;;;;;;141.57;66.15;;;2.80;1.00;;;;;;5077644;28;20120;-80
2022/01/01 05:35:43;;;;;;;144.57;69.90;;;2.80;1.00;;;;;;5075576;28;20041;-81
2022/01/01 05:38:11;;;;;;;165.88;78.00;;;2.80;1.00;;;;;;5077313;28;20082;-81
2022/01/01 05:40:38;;;;;;;136.05;66.75;;;2.80;1.00;;;;;;5060158;28;20561;-81
2022/01/01 05:43:12;;;;;;;131.65;69.28;;;2.80;1.00;;;;;;5079498;28;20488;-83
2022/01/01 05:45:39;;;;;;;128.77;68.40;;;2.70;1.00;;;;;;5060290;28;20048;-82
2022/01/01 05:48:08;;;;;;;133.10;69.55;;;2.70;1.00;;;;;;5067284;28;20049;-83
2022/01/01 05:50:37;;;;;;;125.15;67.38;;;2.80;1.00;;;;;;5070053;28;20045;-80
2022/01/01 05:53:05;;;;;;;128.50;69.07;;;2.80;99.90;;;;;;5044409;28;20119;-80
2022/01/01 05:55:32;;;;;;;129.07;68.40;;;2.80;96.90;;;;;;5045932;28;20095;-80
2022/01/01 05:58:00;;;;;;;160.82;82.30;;;2.80;1.00;;;;;;5045912;28;20068;-82
2022/01/01 06:00:28;;;;;;;126.63;69.95;;;2.60;1.00;;;;;;5044464;28;20057;-81
2022/01/01 06:02:58;;;;;;;120.18;65.22;;;2.70;1.00;;;;;;5061488;28;20106;-81
2022/01/01 06:05:28;;;;;;;135.77;62.60;;;2.70;1.00;;;;;;5043885;28;20041;-81
2022/01/01 06:07:56;;;;;;;102.35;52.05;;;2.70;1.00;;;;;;5062113;28;20068;-80
2022/01/01 06:10:23;;;;;;;98.85;57.58;;;2.70;1.00;;;;;;5069658;28;20210;-81
2022/01/01 06:12:51;;;;;;;115.90;67.50;;;2.70;1.00;;;;;;5081470;28;20044;-81
2022/01/01 06:15:19;;;;;;;109.85;59.63;;;2.80;99.90;;;;;;5080193;28;20051;-81
2022/01/01 06:17:46;;;;;;;116.00;63.70;;;2.80;99.90;;;;;;5081434;28;20067;-81
2022/01/01 06:20:14;;;;;;;161.55;79.57;;;2.80;1.00;;;;;;5080395;28;20053;-81
2022/01/01 06:22:43;;;;;;;128.38;66.55;;;2.80;1.00;;;;;;5080662;28;20562;-80
2022/01/01 06:25:11;;;;;;;115.85;59.67;;;2.70;1.00;;;;;;5067605;28;20049;-83
2022/01/01 06:27:38;;;;;;;148.85;74.55;;;2.80;1.00;;;;;;5080588;28;20396;-82
2022/01/01 06:30:07;;;;;;;121.05;60.53;;;2.80;1.00;;;;;;5080836;28;20040;-82
2022/01/01 06:32:35;;;;;;;103.38;58.50;;;2.80;1.00;;;;;;5083236;28;20052;-82
2022/01/01 06:35:02;;;;;;;115.63;63.72;;;2.80;1.00;;;;;;5063657;28;20071;-82
2022/01/01 06:37:30;;;;;;;122.05;63.13;;;2.80;99.90;;;;;;5062601;28;20098;-81
2022/01/01 06:39:59;;;;;;;121.45;63.88;;;2.80;95.60;;;;;;5062800;28;20121;-81
2022/01/01 06:42:26;;;;;;;125.13;65.13;;;2.70;93.40;;;;;;5080460;28;20451;-81
2022/01/01 06:44:54;;;;;;;118.43;61.35;;;2.70;3.10;;;;;;5062116;28;20140;-80
2022/01/01 06:47:21;;;;;;;117.78;63.13;;;2.70;1.00;;;;;;5061026;28;20048;-82
2022/01/01 06:49:49;;;;;;;115.10;64.75;;;2.70;1.00;;;;;;5060910;28;20037;-83
2022/01/01 06:52:17;;;;;;;117.85;68.70;;;2.70;1.00;;;;;;5058744;28;20041;-81
2022/01/01 06:54:44;;;;;;;110.90;66.05;;;2.70;28.80;;;;;;5061241;28;20040;-85
2022/01/01 06:57:14;;;;;;;118.60;64.43;;;2.80;47.00;;;;;;5078359;28;20080;-80
2022/01/01 06:59:42;;;;;;;116.43;67.05;;;2.80;29.20;;;;;;5078668;28;20063;-80
2022/01/01 07:02:09;;;;;;;107.13;60.25;;;2.90;1.00;;;;;;5079058;28;20045;-80
2022/01/01 07:04:37;;;;;;;114.35;67.82;;;3.00;1.00;;;;;;5077333;28;20492;-83
2022/01/01 07:07:04;;;;;;;136.57;74.57;;;3.10;1.00;;;;;;5079401;28;20492;-82
2022/01/01 07:09:32;;;;;;;124.80;68.63;;;3.10;99.90;;;;;;5061324;28;20135;-82
2022/01/01 07:11:59;;;;;;;124.50;70.68;;;3.10;99.90;;;;;;5060951;28;20099;-83
2022/01/01 07:14:28;;;;;;;123.57;73.57;;;3.10;99.90;;;;;;5069074;28;20036;-81
2022/01/01 07:16:56;;;;;;;121.32;71.97;;;3.10;99.90;;;;;;5081487;28;20094;-83
2022/01/01 07:19:23;;;;;;;112.18;67.68;;;3.10;99.90;;;;;;5081110;28;20128;-81
2022/01/01 07:21:51;;;;;;;104.20;63.80;;;3.10;99.90;;;;;;5064948;28;20072;-83
2022/01/01 07:24:18;;;;;;;110.03;64.57;;;3.30;1.00;;;;;;5085365;28;20044;-83
2022/01/01 07:26:46;;;;;;;118.53;72.28;;;3.40;1.00;;;;;;5080033;28;20035;-82
2022/01/01 07:29:13;;;;;;;126.38;74.57;;;3.60;99.90;;;;;;5083543;28;20082;-81
2022/01/01 07:31:42;;;;;;;130.77;75.65;;;3.50;1.00;;;;;;5066443;28;20047;-81
2022/01/01 07:34:10;;;;;;;135.77;81.88;;;3.60;1.00;;;;;;5066700;28;20496;-81
2022/01/01 07:36:37;;;;;;;133.15;79.63;;;3.60;1.00;;;;;;5060798;28;20036;-81
2022/01/01 07:39:05;;;;;;;133.77;82.30;;;3.60;1.00;;;;;;5078656;28;20048;-82
2022/01/01 07:41:32;;;;;;;171.27;100.63;;;3.70;1.00;;;;;;5077768;28;20044;-82
2022/01/01 07:44:00;;;;;;;189.10;111.63;;;3.90;1.00;;;;;;5086331;28;20093;-81
2022/01/01 07:46:27;;;;;;;175.77;102.07;;;4.10;1.00;;;;;;5077164;28;20039;-80
2022/01/01 07:48:56;;;;;;;169.52;102.07;;;4.30;1.00;;;;;;5078053;28;20043;-80
2022/01/01 07:51:24;;;;;;;165.55;96.85;;;4.40;99.90;;;;;;5067582;28;20496;-80
2022/01/01 07:53:52;;;;;;;171.27;100.60;;;4.50;99.90;;;;;;5077446;28;20131;-81
2022/01/01 07:56:19;;;;;;;157.60;96.22;;;4.70;99.90;;;;;;5059268;28;20483;-81
2022/01/01 07:58:47;;;;;;;165.05;97.65;;;4.80;99.90;;;;;;5058891;28;20040;-80
2022/01/01 08:01:14;;;;;;;148.85;91.30;;;5.00;99.90;;;;;;5077251;28;20136;-81
2022/01/01 08:03:42;;;;;;;150.63;91.18;;;5.20;37.20;;;;;;5059721;28;20522;-81
2022/01/01 08:06:11;;;;;;;153.25;93.05;;;5.40;1.00;;;;;;5058715;28;20037;-81
2022/01/01 08:08:38;;;;;;;165.57;94.88;;;5.50;1.00;;;;;;5051787;28;20040;-81
2022/01/01 08:11:06;;;;;;;170.60;102.03;;;5.60;1.00;;;;;;5059283;28;20079;-81
2022/01/01 08:13:35;;;;;;;172.52;102.82;;;5.80;1.00;;;;;;5056404;28;20495;-82
2022/01/01 08:16:04;;;;;;;143.27;90.80;;;5.90;1.00;;;;;;5075167;28;20052;-80
2022/01/01 08:18:31;;;;;;;143.13;86.55;;;5.90;1.00;;;;;;5078022;28;20044;-82
2022/01/01 08:20:59;;;;;;;157.25;91.53;;;6.00;1.00;;;;;;5059952;28;20045;-82
2022/01/01 08:23:28;;;;;;;150.85;92.63;;;6.20;1.00;;;;;;5084033;28;20381;-81
2022/01/01 08:25:58;;;;;;;162.75;97.70;;;6.30;1.00;;;;;;5077758;28;20096;-81
2022/01/01 08:28:25;;;;;;;151.43;92.80;;;6.30;1.00;;;;;;5060651;28;20053;-80
2022/01/01 08:30:52;;;;;;;142.85;89.43;;;6.40;1.00;;;;;;5090333;28;20043;-82
2022/01/01 08:33:20;;;;;;;129.23;81.07;;;6.50;1.00;;;;;;5086861;28;20033;-79
2022/01/01 08:35:48;;;;;;;144.18;89.60;;;6.50;1.00;;;;;;5076893;28;20064;-80
2022/01/01 08:38:15;;;;;;;147.65;92.63;;;6.60;1.00;;;;;;5075295;28;20518;-80
2022/01/01 08:40:44;;;;;;;148.85;93.57;;;6.60;1.00;;;;;;5074347;28;20048;-80
2022/01/01 08:43:12;;;;;;;154.15;94.18;;;6.70;1.00;;;;;;5079114;28;20046;-80
2022/01/01 08:45:40;;;;;;;157.35;98.30;;;6.80;1.00;;;;;;5058656;28;20036;-81
2022/01/01 08:48:08;;;;;;;193.65;118.57;;;6.90;1.00;;;;;;5079986;28;20105;-81
2022/01/01 08:50:36;;;;;;;188.43;114.50;;;7.00;1.00;;;;;;5076771;28;20071;-80
2022/01/01 08:53:03;;;;;;;178.57;110.97;;;6.90;1.00;;;;;;5058103;28;20070;-80
2022/01/01 08:55:31;;;;;;;167.32;103.65;;;7.00;1.00;;;;;;5076275;28;20119;-81
2022/01/01 08:58:01;;;;;;;171.68;103.63;;;7.20;1.00;;;;;;5047940;28;20099;-81
2022/01/01 09:00:28;;;;;;;155.75;95.90;;;7.10;1.00;;;;;;5074369;28;20048;-83
2022/01/01 09:02:56;;;;;;;147.75;92.88;;;7.10;1.00;;;;;;5076691;28;20032;-80
2022/01/01 09:05:25;;;;;;;140.18;91.57;;;7.10;1.00;;;;;;5075374;28;20044;-82
2022/01/01 09:07:52;;;;;;;139.77;88.65;;;7.10;1.00;;;;;;5076425;28;20403;-81
2022/01/01 09:10:20;;;;;;;133.70;86.32;;;7.10;1.00;;;;;;5076432;28;20044;-80
2022/01/01 09:12:49;;;;;;;128.07;82.55;;;7.30;1.00;;;;;;5073273;28;20455;-80
2022/01/01 09:15:17;;;;;;;139.00;88.82;;;7.50;1.00;;;;;;5054436;28;20040;-83
2022/01/01 09:17:45;;;;;;;138.25;85.93;;;7.60;1.00;;;;;;5070676;28;20096;-81
2022/01/01 09:20:13;;;;;;;146.07;96.10;;;7.70;1.00;;;;;;5078868;28;20127;-82
2022/01/01 09:22:40;;;;;;;148.45;94.28;;;7.80;1.00;;;;;;5102507;28;20042;-82
2022/01/01 09:25:08;;;;;;;140.45;90.65;;;7.60;1.00;;;;;;5086126;28;20071;-81
2022/01/01 09:27:35;;;;;;;145.07;92.05;;;7.40;1.00;;;;;;5077147;28;20048;-80
2022/01/01 09:30:03;;;;;;;150.55;93.28;;;7.30;1.00;;;;;;5085024;28;20049;-81
2022/01/01 09:32:33;;;;;;;146.75;93.95;;;7.10;1.00;;;;;;5099053;28;20048;-80
2022/01/01 09:35:02;;;;;;;151.13;96.07;;;7.00;1.00;;;;;;5098089;28;20044;-81
2022/01/01 09:37:32;;;;;;;155.35;101.25;;;7.10;51.60;;;;;;5080015;28;20127;-79
2022/01/01 09:40:00;;;;;;;143.07;90.78;;;7.30;99.90;;;;;;5079286;28;20059;-80
2022/01/01 09:42:28;;;;;;;142.82;93.65;;;7.50;99.90;;;;;;5079279;28;20078;-82
2022/01/01 09:44:57;;;;;;;138.10;88.82;;;7.70;99.90;;;;;;5079751;28;20046;-80
2022/01/01 09:47:25;;;;;;;128.00;82.32;;;7.90;96.30;;;;;;5079147;28;20037;-80
2022/01/01 09:49:54;;;;;;;131.20;80.57;;;7.90;60.10;;;;;;5079170;28;20488;-80
2022/01/01 09:52:21;;;;;;;142.98;88.80;;;8.00;99.90;;;;;;5079451;28;20131;-81
2022/01/01 09:54:49;;;;;;;137.23;87.15;;;8.10;99.90;;;;;;5079393;28;20120;-80
2022/01/01 09:57:16;;;;;;;153.32;94.53;;;8.30;99.90;;;;;;5080044;28;20060;-80
2022/01/01 09:59:44;;;;;;;184.18;114.00;;;8.40;99.90;;;;;;5079336;28;20096;-82
2022/01/01 10:02:12;;;;;;;184.73;113.80;;;8.50;99.90;;;;;;5083474;28;20056;-81
2022/01/01 10:04:44;;;;;;;163.48;105.88;;;8.60;99.90;;;;;;5086083;28;20051;-80
2022/01/01 10:07:14;;;;;;;141.15;88.40;;;8.70;95.00;;;;;;5081431;28;20052;-81
2022/01/01 10:09:42;;;;;;;142.60;90.55;;;8.80;99.00;;;;;;5060565;28;20392;-81
2022/01/01 10:12:15;;;;;;;140.35;87.68;;;8.90;2.20;;;;;;5079334;28;20124;-82
2022/01/01 10:14:44;;;;;;;139.48;88.22;;;9.00;1.00;;;;;;5079519;28;20036;-80
2022/01/01 10:17:16;;;;;;;145.48;91.57;;;9.20;1.00;;;;;;5079165;28;20407;-81
2022/01/01 10:19:44;;;;;;;142.90;87.15;;;9.30;1.00;;;;;;5075581;28;20384;-81
2022/01/01 10:22:14;;;;;;;136.80;86.20;;;9.40;1.00;;;;;;5078605;28;20036;-82
2022/01/01 10:27:45;;;;;;;151.45;93.90;;;9.60;1.00;;;;;;5025461;28;20114;-82
2022/01/01 10:30:21;;;;;;;149.18;93.70;;;9.70;1.00;;;;;;5072792;28;20041;-82
2022/01/01 10:33:05;;;;;;;153.93;93.93;;;9.90;1.00;;;;;;5078323;28;20046;-81
2022/01/01 10:35:38;;;;;;;140.38;90.05;;;10.10;1.00;;;;;;5078863;28;20124;-80
2022/01/01 10:38:10;;;;;;;149.05;92.28;;;10.20;1.00;;;;;;5090927;28;20033;-79
2022/01/01 10:40:38;;;;;;;134.50;82.95;;;10.40;1.00;;;;;;5061079;28;20556;-81
2022/01/01 10:43:06;;;;;;;140.48;89.18;;;10.50;1.00;;;;;;5071432;28;20124;-83
2022/01/01 10:45:36;;;;;;;153.52;96.22;;;10.60;1.00;;;;;;5079350;28;20131;-81
2022/01/01 10:48:21;;;;;;;146.10;90.78;;;10.70;1.00;;;;;;5077410;28;20044;-81
2022/01/01 10:50:50;;;;;;;136.63;82.32;;;10.90;1.00;;;;;;5060827;28;20440;-82
2022/01/01 10:53:22;;;;;;;132.25;77.93;;;11.00;1.00;;;;;;5077954;28;20410;-79
2022/01/01 10:55:52;;;;;;;119.15;72.38;;;11.20;99.90;;;;;;5081881;28;20503;-83
2022/01/01 10:58:21;;;;;;;109.45;66.90;;;11.30;99.90;;;;;;5076684;28;20097;-79
2022/01/01 11:00:49;;;;;;;112.22;68.22;;;11.40;99.90;;;;;;5077681;28;20044;-80
2022/01/01 11:03:18;;;;;;;98.07;60.50;;;11.50;99.90;;;;;;5061013;28;20044;-77
2022/01/01 11:05:47;;;;;;;99.32;61.63;;;11.60;99.90;;;;;;5076506;28;20071;-78
2022/01/01 11:08:15;;;;;;;85.28;55.17;;;11.70;99.90;;;;;;5077637;28;20503;-79
2022/01/01 11:10:44;;;;;;;72.55;47.55;;;11.90;99.90;;;;;;5066234;28;20052;-78
2022/01/01 11:13:12;;;;;;;61.80;41.72;;;12.00;99.90;;;;;;5057904;28;20045;-79
2022/01/01 11:15:40;;;;;;;61.70;41.63;;;12.10;99.90;;;;;;5083543;28;20040;-77
2022/01/01 11:18:09;;;;;;;67.03;42.97;;;12.20;99.90;;;;;;5077089;28;20480;-76
2022/01/01 11:20:39;;;;;;;73.10;47.05;;;12.40;99.90;;;;;;5076106;28;20041;-77
2022/01/01 11:23:09;;;;;;;80.80;52.95;;;12.40;99.90;;;;;;5060731;28;20510;-78
2022/01/01 11:25:38;;;;;;;85.75;51.85;;;12.50;99.90;;;;;;5075750;28;20175;-80
2022/01/01 11:28:09;;;;;;;88.03;55.50;;;12.60;99.90;;;;;;5077676;28;20048;-77
2022/01/01 11:30:39;;;;;;;90.55;57.22;;;12.60;99.90;;;;;;5076553;28;20055;-79
2022/01/01 11:33:09;;;;;;;84.43;57.10;;;12.60;99.90;;;;;;5076825;28;20067;-80
2022/01/01 11:35:38;;;;;;;95.60;60.60;;;12.70;99.90;;;;;;5089407;28;20041;-78
2022/01/01 11:38:08;;;;;;;83.18;55.75;;;12.60;99.90;;;;;;5094571;28;20150;-79
2022/01/01 11:40:56;;;;;;;87.60;56.33;;;12.70;99.90;;;;;;5075348;28;20058;-77
2022/01/01 11:43:39;;;;;;;82.15;53.65;;;12.70;99.90;;;;;;5073694;28;20048;-79
2022/01/01 11:46:13;;;;;;;82.93;50.70;;;12.80;99.90;;;;;;5076043;28;20123;-79
2022/01/01 11:48:49;;;;;;;84.03;50.20;;;12.90;99.90;;;;;;5082819;28;20068;-81
2022/01/01 11:51:32;;;;;;;76.68;46.38;;;12.90;99.90;;;;;;5075196;28;20043;-79
2022/01/01 11:54:19;;;;;;;74.72;45.08;;;13.00;99.90;;;;;;5058383;28;20490;-80
2022/01/01 11:57:15;;;;;;;76.70;45.97;;;13.00;99.90;;;;;;5058077;28;20049;-79
2022/01/01 11:59:55;;;;;;;73.80;43.70;;;13.10;99.90;;;;;;5054809;28;20131;-79
2022/01/01 12:02:48;;;;;;;81.45;48.10;;;13.20;99.90;;;;;;5076949;28;20051;-80
2022/01/01 12:05:33;;;;;;;79.22;47.85;;;13.30;99.90;;;;;;5057975;28;20140;-79
2022/01/01 12:08:01;;;;;;;83.38;50.60;;;13.30;99.90;;;;;;5092297;28;20060;-80
2022/01/01 12:10:31;;;;;;;77.28;50.60;;;13.40;99.90;;;;;;5092956;28;20048;-78
2022/01/01 12:13:01;;;;;;;84.60;52.92;;;13.50;99.90;;;;;;5093076;28;20033;-78
2022/01/01 12:15:44;;;;;;;87.10;53.65;;;13.50;99.90;;;;;;5074593;28;20078;-78
2022/01/01 12:18:13;;;;;;;88.15;54.88;;;13.60;96.30;;;;;;5091777;28;20059;-80
2022/01/01 12:20:45;;;;;;;89.75;57.20;;;13.50;95.80;;;;;;5089652;28;20465;-78
2022/01/01 12:23:15;;;;;;;96.05;57.45;;;13.60;95.50;;;;;;5086879;28;20108;-78
2022/01/01 12:25:44;;;;;;;91.00;51.53;;;13.60;91.00;;;;;;5089088;28;20044;-78
2022/01/01 12:28:14;;;;;;;86.10;51.63;;;13.70;87.60;;;;;;5091057;28;20041;-78
2022/01/01 12:30:47;;;;;;;76.75;45.13;;;13.80;99.90;;;;;;5069981;28;20049;-79
2022/01/01 12:33:25;;;;;;;72.22;43.38;;;13.80;72.30;;;;;;5089457;28;20052;-79
2022/01/01 12:35:54;;;;;;;77.85;46.10;;;13.90;70.00;;;;;;5088082;28;20044;-78
2022/01/01 12:38:23;;;;;;;77.90;44.72;;;14.00;62.60;;;;;;5089262;28;20040;-79
2022/01/01 12:40:58;;;;;;;72.22;42.42;;;14.00;53.60;;;;;;5088495;28;20060;-78